createdAt,value
2022-08-27T00:00:22.161Z,90.95
2022-08-27T00:05:22.073Z,91.15
2022-08-27T00:10:22.043Z,91.69
2022-08-27T00:15:21.953Z,90.75
2022-08-27T00:20:21.905Z,89.40
2022-08-27T00:25:21.842Z,90.25
2022-08-27T00:30:21.776Z,89.61
2022-08-27T00:35:21.718Z,89.70
2022-08-27T00:40:21.734Z,90.95
2022-08-27T00:45:21.612Z,91.99
2022-08-27T00:50:21.527Z,92.59
2022-08-27T00:55:21.483Z,92.79
2022-08-27T01:00:21.399Z,91.55
2022-08-27T01:05:21.341Z,91.15
2022-08-27T01:10:21.280Z,91.75
2022-08-27T01:15:21.211Z,92.79
2022-08-27T01:20:21.172Z,92.99
2022-08-27T01:25:21.075Z,93.63
2022-08-27T01:30:21.009Z,92.74
2022-08-27T01:35:20.941Z,92.63
2022-08-27T01:40:20.925Z,92.63
2022-08-27T01:45:20.816Z,92.74
2022-08-27T01:50:20.759Z,93.04
2022-08-27T01:55:20.705Z,92.93
2022-08-27T02:00:20.894Z,92.83
2022-08-27T02:05:20.593Z,89.51
2022-08-27T02:10:20.519Z,89.01
2022-08-27T02:15:20.448Z,89.25
2022-08-27T02:20:20.379Z,89.85
2022-08-27T02:25:20.320Z,91.89
2022-08-27T02:30:20.249Z,92.39
2022-08-27T02:35:20.190Z,92.29
2022-08-27T02:40:20.188Z,91.79
2022-08-27T02:45:20.064Z,91.83
2022-08-27T02:50:19.993Z,90.99
2022-08-27T02:55:19.933Z,90.49
2022-08-27T03:00:19.939Z,91.13
2022-08-27T03:05:19.839Z,91.63
2022-08-27T03:10:19.743Z,91.33
2022-08-27T03:15:19.695Z,89.99
2022-08-27T03:20:19.627Z,89.79
2022-08-27T03:25:19.580Z,90.63
2022-08-27T03:30:19.496Z,90.79
2022-08-27T03:35:19.447Z,90.63
2022-08-27T03:40:19.404Z,91.38
2022-08-27T03:45:19.319Z,91.58
2022-08-27T03:50:19.237Z,91.44
2022-08-27T03:55:19.170Z,92.28
2022-08-27T04:00:19.098Z,91.74
2022-08-27T04:05:19.036Z,91.83
2022-08-27T04:10:19.086Z,92.24
2022-08-27T04:15:18.932Z,92.63
2022-08-27T04:20:35.024Z,92.63
2022-08-27T04:25:19.783Z,92.83
2022-08-27T04:30:18.738Z,92.03
2022-08-27T04:35:18.656Z,91.79
2022-08-27T04:40:18.610Z,93.09
2022-08-27T04:45:18.517Z,93.05
2022-08-27T04:50:18.453Z,93.99
2022-08-27T04:55:18.392Z,94.29
2022-08-27T05:00:18.319Z,94.74
2022-08-27T05:05:18.316Z,93.30
2022-08-27T05:10:18.215Z,94.65
2022-08-27T05:15:18.322Z,95.09
2022-08-27T05:20:18.088Z,95.09
2022-08-27T05:25:18.041Z,95.29
2022-08-27T05:30:17.943Z,94.89
2022-08-27T05:35:17.896Z,94.99
2022-08-27T05:40:17.850Z,94.35
2022-08-27T05:45:17.754Z,94.79
2022-08-27T05:50:20.711Z,94.79
2022-08-27T05:55:18.666Z,92.85
2022-08-27T06:00:17.580Z,94.35
2022-08-27T06:05:17.566Z,92.94
2022-08-27T06:10:17.455Z,91.95
2022-08-27T06:15:17.378Z,91.55
2022-08-27T06:20:17.488Z,91.15
2022-08-27T06:25:17.251Z,90.84
2022-08-27T06:30:17.708Z,91.49
2022-08-27T06:35:17.131Z,90.75
2022-08-27T06:40:17.093Z,91.09
2022-08-27T06:45:17.012Z,91.45
2022-08-27T06:50:20.199Z,90.75
2022-08-27T06:55:16.894Z,89.51
2022-08-27T07:00:16.876Z,90.11
2022-08-27T07:05:16.757Z,89.70
2022-08-27T07:10:16.677Z,90.65
2022-08-27T07:15:16.629Z,90.45
2022-08-27T07:20:16.557Z,89.75
2022-08-27T07:25:16.665Z,90.05
2022-08-27T07:30:16.429Z,90.89
2022-08-27T07:35:16.386Z,90.39
2022-08-27T07:40:16.375Z,90.69
2022-08-27T07:45:16.258Z,90.45
2022-08-27T07:50:16.191Z,89.45
2022-08-27T07:55:16.121Z,88.81
2022-08-27T08:00:16.051Z,89.75
2022-08-27T08:05:16.108Z,89.61
2022-08-27T08:10:15.932Z,88.10
2022-08-27T08:15:15.864Z,86.52
2022-08-27T08:20:24.161Z,85.69
2022-08-27T08:25:16.892Z,85.28
2022-08-27T08:30:16.254Z,85.28
2022-08-27T08:35:15.727Z,85.78
2022-08-27T08:40:15.612Z,86.22
2022-08-27T08:45:15.528Z,86.47
2022-08-27T08:50:19.577Z,86.57
2022-08-27T08:55:15.707Z,87.16
2022-08-27T09:00:15.301Z,88.10
2022-08-27T09:05:15.290Z,87.02
2022-08-27T09:10:15.175Z,86.29
2022-08-27T09:15:15.143Z,86.08
2022-08-27T09:20:15.081Z,86.93
2022-08-27T09:25:19.000Z,87.37
2022-08-27T09:30:15.968Z,88.40
2022-08-27T09:35:15.014Z,89.01
2022-08-27T09:40:23.155Z,88.01
2022-08-27T09:45:15.706Z,88.81
2022-08-27T09:50:14.753Z,86.93
2022-08-27T09:55:14.620Z,86.63
2022-08-27T10:00:14.545Z,86.82
2022-08-27T10:05:14.459Z,87.42
2022-08-27T10:10:14.451Z,86.19
2022-08-27T10:15:14.331Z,85.99
2022-08-27T10:20:14.358Z,86.93
2022-08-27T10:25:14.219Z,86.29
2022-08-27T10:30:14.209Z,86.52
2022-08-27T10:35:14.061Z,85.44
2022-08-27T10:40:14.267Z,86.29
2022-08-27T10:45:13.945Z,84.21
2022-08-27T10:50:14.964Z,84.91
2022-08-27T10:55:14.004Z,85.44
2022-08-27T11:00:13.785Z,86.08
2022-08-27T11:05:13.684Z,84.55
2022-08-27T11:10:13.611Z,84.17
2022-08-27T11:15:13.539Z,83.77
2022-08-27T11:20:13.518Z,83.37
2022-08-27T11:25:13.513Z,82.34
2022-08-27T11:30:13.410Z,84.37
2022-08-27T11:35:13.390Z,82.97
2022-08-27T11:40:13.700Z,82.84
2022-08-27T11:45:13.334Z,84.07
2022-08-27T11:50:13.082Z,83.57
2022-08-27T11:55:13.039Z,84.41
2022-08-27T12:00:12.943Z,84.47
2022-08-27T12:08:06.016Z,84.17
2022-08-27T12:13:00.530Z,84.03
2022-08-27T12:17:58.333Z,83.19
2022-08-27T12:22:58.284Z,84.27
2022-08-27T12:27:58.271Z,85.80
2022-08-27T12:32:58.201Z,87.04
2022-08-27T12:37:58.285Z,86.34
2022-08-27T12:42:58.239Z,86.98
2022-08-27T12:47:59.236Z,87.18
2022-08-27T12:52:57.946Z,87.48
2022-08-27T12:57:57.835Z,87.68
2022-08-27T13:02:58.112Z,88.68
2022-08-27T13:07:57.685Z,86.74
2022-08-27T13:12:57.605Z,86.00
2022-08-27T13:17:57.561Z,85.74
2022-08-27T13:22:57.462Z,88.02
2022-08-27T13:27:57.436Z,87.92
2022-08-27T13:32:57.362Z,86.44
2022-08-27T13:37:57.301Z,85.21
2022-08-27T13:42:57.424Z,86.74
2022-08-27T13:47:57.272Z,87.04
2022-08-27T13:52:57.107Z,86.19
2022-08-27T13:57:57.015Z,87.14
2022-08-27T14:02:57.098Z,86.36
2022-08-27T14:07:56.906Z,85.32
2022-08-27T14:12:57.050Z,82.29
2022-08-27T14:17:56.737Z,84.81
2022-08-27T14:22:56.678Z,85.46
2022-08-27T14:27:56.724Z,84.13
2022-08-27T14:32:57.204Z,83.43
2022-08-27T14:37:56.645Z,84.56
2022-08-27T14:42:56.528Z,85.90
2022-08-27T14:47:59.091Z,85.27
2022-08-27T14:52:57.321Z,86.34
2022-08-27T14:57:56.251Z,86.15
2022-08-27T15:02:56.257Z,87.08
2022-08-27T15:07:56.352Z,86.15
2022-08-27T15:12:56.121Z,87.28
2022-08-27T15:17:56.008Z,86.15
2022-08-27T15:22:55.937Z,86.54
2022-08-27T15:27:55.882Z,89.66
2022-08-27T15:32:55.779Z,89.12
2022-08-27T15:37:55.749Z,86.64
2022-08-27T15:42:55.630Z,86.34
2022-08-27T15:47:55.583Z,88.82
2022-08-27T15:52:55.573Z,87.14
2022-08-27T15:57:55.501Z,87.04
2022-08-27T16:02:55.649Z,86.70
2022-08-27T16:07:55.294Z,87.00
2022-08-27T16:12:55.340Z,85.46
2022-08-27T16:17:55.194Z,86.16
2022-08-27T16:22:55.108Z,85.96
2022-08-27T16:27:55.184Z,89.38
2022-08-27T16:32:55.017Z,89.38
2022-08-27T16:37:56.805Z,90.22
2022-08-27T16:42:55.362Z,89.87
2022-08-27T16:47:54.766Z,91.82
2022-08-27T16:52:54.842Z,92.06
2022-08-27T16:57:54.691Z,90.32
2022-08-27T17:02:55.016Z,88.73
2022-08-27T17:07:54.551Z,87.64
2022-08-27T17:12:54.552Z,89.58
2022-08-27T17:17:54.433Z,91.46
2022-08-27T17:22:54.319Z,92.10
2022-08-27T17:27:58.049Z,91.11
2022-08-27T17:32:55.314Z,90.32
2022-08-27T17:37:54.144Z,90.76
2022-08-27T17:42:54.412Z,90.76
2022-08-27T17:47:54.990Z,93.50
2022-08-27T17:52:53.920Z,92.60
2022-08-27T17:57:53.878Z,91.46
2022-08-27T18:02:53.833Z,90.86
2022-08-27T18:07:53.822Z,90.22
2022-08-27T18:12:54.683Z,92.06
2022-08-27T18:17:53.763Z,90.76
2022-08-27T18:22:53.604Z,91.80
2022-08-27T18:27:53.468Z,89.26
2022-08-27T18:32:53.435Z,90.41
2022-08-27T18:37:53.374Z,90.00
2022-08-27T18:42:53.285Z,91.64
2022-08-27T18:47:53.319Z,91.79
2022-08-27T18:52:53.207Z,91.29
2022-08-27T18:57:53.354Z,90.35
2022-08-27T19:02:53.200Z,90.45
2022-08-27T19:07:52.968Z,89.11
2022-08-27T19:12:52.986Z,88.56
2022-08-27T19:17:53.090Z,88.26
2022-08-27T19:22:52.921Z,89.95
2022-08-27T19:27:52.749Z,90.25
2022-08-27T19:32:54.892Z,87.57
2022-08-27T19:37:53.224Z,87.02
2022-08-27T19:42:52.550Z,88.46
2022-08-27T19:47:52.635Z,87.37
2022-08-27T19:52:52.364Z,89.20
2022-08-27T19:57:52.587Z,90.69
2022-08-27T20:02:52.298Z,91.39
2022-08-27T20:07:52.275Z,91.44
2022-08-27T20:12:52.143Z,90.99
2022-08-27T20:17:52.208Z,90.25
2022-08-27T20:22:52.325Z,90.89
2022-08-27T20:27:51.930Z,91.39
2022-08-27T20:32:52.036Z,91.79
2022-08-27T20:37:51.890Z,90.25
2022-08-27T20:42:51.777Z,90.05
2022-08-27T20:47:52.198Z,91.59
2022-08-27T20:52:51.883Z,91.89
2022-08-27T20:57:51.574Z,94.98
2022-08-27T21:02:51.494Z,92.59
2022-08-27T21:07:51.412Z,90.95
2022-08-27T21:12:51.347Z,92.09
2022-08-27T21:17:51.275Z,92.69
2022-08-27T21:22:51.267Z,92.99
2022-08-27T21:27:51.244Z,93.88
2022-08-27T21:32:51.108Z,92.13
2022-08-27T21:37:51.041Z,91.74
2022-08-27T21:42:50.986Z,91.63
2022-08-27T21:47:50.897Z,91.24
2022-08-27T21:52:50.810Z,92.08
2022-08-27T21:57:50.765Z,89.53
2022-08-27T22:02:50.720Z,88.69
2022-08-27T22:07:50.624Z,90.13
2022-08-27T22:12:50.579Z,92.82
2022-08-27T22:17:51.407Z,89.09
2022-08-27T22:22:50.396Z,91.42
2022-08-27T22:27:50.388Z,92.62
2022-08-27T22:32:50.454Z,93.67
2022-08-27T22:37:50.212Z,91.92
2022-08-27T22:42:50.157Z,91.72
2022-08-27T22:47:50.068Z,93.97
2022-08-27T22:52:50.000Z,94.51
2022-08-27T22:57:49.943Z,92.47
2022-08-27T23:02:49.891Z,91.48
2022-08-27T23:07:49.823Z,89.37
2022-08-27T23:12:49.751Z,89.18
2022-08-27T23:17:49.694Z,90.28
2022-08-27T23:22:49.612Z,90.28
2022-08-27T23:27:49.561Z,93.97
2022-08-27T23:32:52.700Z,94.17
2022-08-27T23:37:49.517Z,92.42
2022-08-27T23:42:49.345Z,92.57
2022-08-27T23:47:49.275Z,91.52
2022-08-27T23:52:49.255Z,89.94
2022-08-27T23:57:49.149Z,92.22
